Urbana, Illinois
Current Conditions -  °F | °C
As of 10:53 PM on Friday 21 Nov 2014 (Local Time) from KCMI Reporting Station
Overcast Overcast  
Wind Chill: -3°   Ceiling: 2000
Heat Index:   Visibility: 10mi
Dew Point: -7°   Wind: 14mph
Humidity: 50%   Direction: 160°SSE
Pressure: 30.23"   Gusts: NA
Location:  40.12°N, 88.2°W
Report Text: KCMI 220453Z 16012KT 10SM OVC020 02/M07 A3023 RMK AO2 SLP245 T00221072 $
Loading
Personal Weather Stations






























Interactive Weather Map New forecast layout! Learn more

10-Day Weather Forecast

Advertisements
Track Severe Weather on mobile